createdAt,value
2023-01-29T00:00:25.384Z,8.90
2023-01-29T00:02:52.185Z,8.80
2023-01-29T00:05:27.984Z,8.38
2023-01-29T00:07:56.889Z,8.68
2023-01-29T00:10:25.458Z,7.97
2023-01-29T00:12:52.748Z,9.18
2023-01-29T00:15:19.554Z,9.00
2023-01-29T00:17:46.029Z,8.80
2023-01-29T00:20:12.897Z,9.40
2023-01-29T00:22:39.436Z,9.23
2023-01-29T00:25:06.453Z,8.68
2023-01-29T00:27:32.946Z,8.80
2023-01-29T00:30:19.326Z,8.90
2023-01-29T00:32:46.151Z,9.15
2023-01-29T00:35:12.683Z,8.30
2023-01-29T00:37:39.187Z,7.70
2023-01-29T00:40:06.294Z,7.82
2023-01-29T00:42:52.064Z,8.57
2023-01-29T00:45:18.674Z,8.95
2023-01-29T00:47:45.204Z,8.37
2023-01-29T00:50:12.457Z,8.65
2023-01-29T00:52:41.085Z,8.90
2023-01-29T00:55:09.700Z,8.10
2023-01-29T00:57:37.127Z,9.73
2023-01-29T01:00:06.182Z,8.30
2023-01-29T01:02:51.407Z,8.48
2023-01-29T01:05:18.593Z,8.88
2023-01-29T01:07:49.922Z,7.03
2023-01-29T01:10:22.795Z,8.20
2023-01-29T01:12:53.522Z,8.13
2023-01-29T01:15:21.933Z,8.43
2023-01-29T01:17:51.588Z,8.55
2023-01-29T01:20:18.556Z,7.53
2023-01-29T01:22:45.278Z,8.32
2023-01-29T01:25:11.860Z,8.13
2023-01-29T01:27:41.201Z,7.85
2023-01-29T01:30:11.054Z,8.02
2023-01-29T01:32:37.760Z,7.68
2023-01-29T01:35:04.573Z,7.80
2023-01-29T01:37:31.087Z,7.77
2023-01-29T01:39:58.632Z,7.65
2023-01-29T01:42:30.436Z,7.88
2023-01-29T01:45:06.347Z,8.15
2023-01-29T01:47:47.176Z,8.40
2023-01-29T01:50:25.839Z,7.70
2023-01-29T01:52:59.871Z,7.47
2023-01-29T01:55:30.107Z,7.88
2023-01-29T01:58:22.935Z,7.40
2023-01-29T02:00:50.154Z,7.47
2023-01-29T02:03:37.946Z,8.40
2023-01-29T02:06:23.333Z,7.65
2023-01-29T02:09:13.951Z,8.18
2023-01-29T02:11:40.873Z,7.53
2023-01-29T02:14:07.780Z,8.57
2023-01-29T02:16:36.040Z,7.60
2023-01-29T02:19:07.108Z,8.77
2023-01-29T02:22:05.016Z,8.63
2023-01-29T02:24:50.195Z,7.90
2023-01-29T02:27:26.071Z,7.15
2023-01-29T02:30:07.340Z,7.20
2023-01-29T02:32:58.590Z,7.75
2023-01-29T02:35:42.555Z,7.57
2023-01-29T02:38:27.726Z,8.20
2023-01-29T02:40:59.747Z,7.50
2023-01-29T02:43:42.079Z,7.80
2023-01-29T02:46:29.147Z,8.20
2023-01-29T02:49:00.289Z,8.90
2023-01-29T02:51:55.460Z,8.40
2023-01-29T02:54:29.167Z,7.97
2023-01-29T02:57:17.669Z,7.70
2023-01-29T02:59:58.575Z,7.70
2023-01-29T03:02:35.799Z,8.88
2023-01-29T03:05:10.383Z,7.40
2023-01-29T03:07:42.456Z,8.52
2023-01-29T03:10:18.327Z,8.40
2023-01-29T03:12:51.034Z,8.82
2023-01-29T03:15:25.161Z,9.32
2023-01-29T03:18:01.333Z,8.95
2023-01-29T03:20:33.561Z,9.18
2023-01-29T03:23:07.033Z,8.80
2023-01-29T03:25:54.607Z,8.68
2023-01-29T03:28:41.947Z,8.95
2023-01-29T03:31:30.831Z,9.65
2023-01-29T03:34:24.022Z,9.07
2023-01-29T03:37:03.668Z,10.20
2023-01-29T03:39:30.727Z,9.95
2023-01-29T03:42:15.712Z,9.80
2023-01-29T03:44:51.056Z,9.20
2023-01-29T03:47:32.672Z,10.10
2023-01-29T03:50:03.690Z,9.20
2023-01-29T03:52:51.655Z,9.30
2023-01-29T03:55:22.873Z,10.00
2023-01-29T03:58:00.911Z,9.52
2023-01-29T04:00:32.002Z,9.55
2023-01-29T04:03:11.442Z,9.90
2023-01-29T04:06:09.929Z,9.35
2023-01-29T04:08:46.467Z,9.40
2023-01-29T04:11:16.437Z,9.13
2023-01-29T04:13:43.663Z,9.90
2023-01-29T04:16:16.860Z,10.33
2023-01-29T04:18:48.401Z,9.27
2023-01-29T04:21:15.867Z,11.35
2023-01-29T04:23:42.371Z,10.02
2023-01-29T04:26:21.871Z,10.73
2023-01-29T04:28:54.193Z,9.83
2023-01-29T04:31:26.786Z,9.90
2023-01-29T04:34:01.483Z,10.00
2023-01-29T04:36:46.451Z,11.38
2023-01-29T04:39:25.494Z,10.88
2023-01-29T04:42:04.076Z,9.60
2023-01-29T04:44:44.788Z,10.27
2023-01-29T04:47:30.911Z,10.57
2023-01-29T04:50:19.441Z,10.38
2023-01-29T04:53:04.563Z,9.20
2023-01-29T04:55:43.539Z,10.17
2023-01-29T04:58:37.191Z,10.07
2023-01-29T05:01:06.412Z,9.25
2023-01-29T05:03:35.251Z,10.20
2023-01-29T05:06:02.985Z,10.95
2023-01-29T05:08:31.925Z,9.93
2023-01-29T05:11:00.185Z,10.40
2023-01-29T05:13:31.150Z,11.63
2023-01-29T05:16:08.410Z,11.27
2023-01-29T05:18:35.930Z,10.50
2023-01-29T05:21:06.488Z,9.70
2023-01-29T05:23:32.954Z,9.93
2023-01-29T05:25:59.571Z,11.15
2023-01-29T05:28:26.062Z,10.50
2023-01-29T05:30:55.511Z,11.90
2023-01-29T05:33:28.178Z,11.33
2023-01-29T05:35:55.824Z,11.23
2023-01-29T05:38:23.331Z,11.13
2023-01-29T05:40:50.136Z,9.45
2023-01-29T05:43:22.841Z,10.55
2023-01-29T05:46:00.372Z,10.63
2023-01-29T05:48:28.926Z,11.00
2023-01-29T05:51:00.579Z,10.60
2023-01-29T05:53:28.744Z,10.45
2023-01-29T05:55:57.152Z,9.55
2023-01-29T05:58:23.755Z,10.53
2023-01-29T06:00:50.256Z,11.75
2023-01-29T06:03:17.013Z,10.57
2023-01-29T06:05:43.498Z,10.43
2023-01-29T06:08:10.030Z,11.15
2023-01-29T06:10:36.564Z,10.40
2023-01-29T06:13:03.336Z,9.57
2023-01-29T06:15:29.828Z,10.80
2023-01-29T06:17:57.203Z,10.52
2023-01-29T06:20:24.644Z,9.80
2023-01-29T06:22:51.166Z,10.40
2023-01-29T06:25:17.580Z,10.80
2023-01-29T06:27:44.219Z,10.30
2023-01-29T06:30:11.379Z,10.35
2023-01-29T06:32:37.871Z,9.00
2023-01-29T06:35:04.708Z,10.63
2023-01-29T06:37:31.174Z,9.25
2023-01-29T06:39:57.669Z,10.85
2023-01-29T06:42:27.834Z,9.93
2023-01-29T06:44:57.456Z,8.63
2023-01-29T06:47:24.653Z,9.93
2023-01-29T06:49:51.126Z,10.20
2023-01-29T06:52:17.571Z,9.00
2023-01-29T06:54:44.063Z,8.63
2023-01-29T06:57:10.629Z,8.65
2023-01-29T06:59:37.058Z,9.00
2023-01-29T07:02:04.105Z,8.75
2023-01-29T07:04:30.757Z,9.90
2023-01-29T07:06:59.396Z,8.45
2023-01-29T07:09:25.849Z,8.68
2023-01-29T07:11:52.303Z,8.90
2023-01-29T07:14:18.728Z,8.52
2023-01-29T07:16:45.242Z,9.65
2023-01-29T07:19:11.771Z,8.07
2023-01-29T07:21:38.222Z,9.07
2023-01-29T07:24:04.895Z,9.70
2023-01-29T07:26:31.333Z,8.63
2023-01-29T07:28:57.751Z,8.05
2023-01-29T07:31:24.404Z,8.23
2023-01-29T07:33:50.914Z,9.13
2023-01-29T07:36:17.453Z,8.97
2023-01-29T07:38:43.947Z,8.60
2023-01-29T07:41:11.731Z,8.40
2023-01-29T07:43:38.182Z,9.88
2023-01-29T07:46:05.218Z,8.32
2023-01-29T07:48:31.815Z,9.23
2023-01-29T07:50:58.919Z,8.65
2023-01-29T07:53:27.836Z,9.32
2023-01-29T07:55:54.279Z,9.57
2023-01-29T07:58:20.844Z,9.52
2023-01-29T08:00:47.289Z,9.20
2023-01-29T08:03:17.426Z,9.73
2023-01-29T08:05:44.880Z,9.27
2023-01-29T08:08:11.496Z,9.27
2023-01-29T08:10:39.457Z,10.13
2023-01-29T08:13:06.632Z,8.90
2023-01-29T08:15:33.473Z,9.18
2023-01-29T08:18:01.927Z,9.25
2023-01-29T08:20:28.890Z,8.93
2023-01-29T08:23:15.649Z,9.65
2023-01-29T08:25:42.654Z,7.90
2023-01-29T08:28:09.776Z,9.18
2023-01-29T08:30:36.232Z,9.00
2023-01-29T08:33:03.751Z,9.02
2023-01-29T08:35:30.309Z,8.32
2023-01-29T08:37:59.475Z,8.83
2023-01-29T08:40:27.648Z,9.15
2023-01-29T08:43:02.515Z,7.28
2023-01-29T08:45:31.153Z,9.35
2023-01-29T08:47:57.645Z,8.82
2023-01-29T08:50:24.337Z,8.20
2023-01-29T08:52:51.048Z,7.85
2023-01-29T08:55:41.814Z,9.95
2023-01-29T08:58:10.773Z,10.10
2023-01-29T09:00:37.277Z,8.95
2023-01-29T09:03:03.932Z,8.47
2023-01-29T09:05:30.544Z,8.90
2023-01-29T09:07:58.039Z,9.00
2023-01-29T09:10:24.921Z,9.10
2023-01-29T09:12:51.428Z,9.02
2023-01-29T09:15:18.315Z,8.70
2023-01-29T09:17:45.180Z,8.38
2023-01-29T09:20:11.831Z,8.45
2023-01-29T09:22:38.294Z,8.57
2023-01-29T09:25:05.282Z,9.48
2023-01-29T09:27:31.916Z,9.47
2023-01-29T09:29:58.413Z,8.57
2023-01-29T09:32:51.999Z,8.88
2023-01-29T09:35:11.346Z,8.77
2023-01-29T09:37:37.813Z,8.90
2023-01-29T09:40:04.989Z,9.10
2023-01-29T09:42:44.061Z,8.57
2023-01-29T09:45:16.224Z,9.55
2023-01-29T09:47:44.253Z,8.50
2023-01-29T09:50:19.234Z,9.85
2023-01-29T09:52:53.212Z,8.43
2023-01-29T09:55:32.560Z,7.65
2023-01-29T09:58:25.466Z,9.50
2023-01-29T10:01:08.187Z,8.90
2023-01-29T10:03:53.183Z,8.93
2023-01-29T10:06:47.757Z,9.80
2023-01-29T10:09:20.935Z,8.93
2023-01-29T10:12:02.978Z,10.48
2023-01-29T10:14:56.030Z,9.73
2023-01-29T10:17:50.443Z,9.35
2023-01-29T10:20:47.659Z,8.77
2023-01-29T10:23:34.613Z,9.45
2023-01-29T10:26:01.340Z,8.65
2023-01-29T10:28:48.344Z,9.05
2023-01-29T10:31:39.040Z,8.18
2023-01-29T10:34:24.750Z,9.57
2023-01-29T10:36:51.232Z,9.38
2023-01-29T10:39:20.608Z,8.88
2023-01-29T10:42:05.479Z,7.93
2023-01-29T10:44:39.525Z,9.18
2023-01-29T10:47:21.285Z,9.17
2023-01-29T10:49:59.913Z,8.55
2023-01-29T10:53:03.652Z,7.95
2023-01-29T10:55:47.976Z,10.00
2023-01-29T10:58:22.170Z,12.15
2023-01-29T11:00:49.687Z,9.87
2023-01-29T11:03:28.068Z,10.15
2023-01-29T11:06:11.592Z,9.90
2023-01-29T11:09:25.667Z,9.65
2023-01-29T11:12:01.222Z,9.13
2023-01-29T11:14:45.611Z,10.10
2023-01-29T11:17:17.285Z,10.32
2023-01-29T11:19:46.632Z,9.90
2023-01-29T11:22:20.285Z,10.70
2023-01-29T11:25:07.657Z,11.98
2023-01-29T11:27:43.801Z,11.37
2023-01-29T11:30:31.893Z,10.77
2023-01-29T11:33:10.465Z,10.95
2023-01-29T11:35:37.078Z,11.02
2023-01-29T11:38:09.536Z,10.77
2023-01-29T11:40:39.769Z,10.90
2023-01-29T11:43:13.623Z,12.43
2023-01-29T11:45:40.668Z,12.80
2023-01-29T11:48:15.666Z,11.38
2023-01-29T11:50:42.905Z,13.75
2023-01-29T11:53:34.502Z,12.80
2023-01-29T11:56:04.186Z,11.80
2023-01-29T11:58:34.507Z,12.20
2023-01-29T12:01:01.532Z,12.15
2023-01-29T12:03:36.687Z,11.68
2023-01-29T12:06:07.349Z,11.17
2023-01-29T12:08:38.849Z,13.02
2023-01-29T12:11:33.265Z,11.55
2023-01-29T12:14:02.120Z,11.20
2023-01-29T12:16:52.904Z,11.68
2023-01-29T12:19:45.930Z,10.77
2023-01-29T12:22:18.639Z,11.25
2023-01-29T12:24:53.857Z,11.63
2023-01-29T12:27:46.764Z,11.70
2023-01-29T12:30:23.374Z,11.88
2023-01-29T12:33:31.836Z,12.40
2023-01-29T12:36:31.529Z,11.90
2023-01-29T12:38:59.257Z,15.68
2023-01-29T12:41:40.337Z,13.45
2023-01-29T12:44:45.162Z,14.38
2023-01-29T12:47:31.289Z,12.27
2023-01-29T12:50:03.483Z,13.65
2023-01-29T12:52:52.206Z,12.15
2023-01-29T12:55:47.912Z,13.07
2023-01-29T12:58:20.041Z,12.07
2023-01-29T13:00:51.041Z,13.00
2023-01-29T13:03:17.764Z,12.15
2023-01-29T13:05:58.008Z,12.90
2023-01-29T13:08:32.484Z,14.10
2023-01-29T13:11:02.860Z,14.50
2023-01-29T13:13:54.002Z,12.00
2023-01-29T13:16:25.106Z,12.80
2023-01-29T13:19:05.899Z,13.30
2023-01-29T13:21:40.726Z,13.02
2023-01-29T13:24:23.038Z,12.20
2023-01-29T13:26:49.946Z,12.70
2023-01-29T13:29:25.393Z,12.38
2023-01-29T13:32:04.735Z,13.02
2023-01-29T13:34:43.959Z,13.70
2023-01-29T13:37:28.202Z,14.00
2023-01-29T13:39:56.296Z,12.93
2023-01-29T13:42:49.032Z,13.52
2023-01-29T13:45:25.239Z,15.13
2023-01-29T13:50:51.633Z,12.60
2023-01-29T13:53:40.364Z,13.33
2023-01-29T13:56:34.613Z,12.63
2023-01-29T13:59:02.284Z,12.45
2023-01-29T14:01:46.887Z,11.80
2023-01-29T14:04:19.462Z,13.00
2023-01-29T14:06:48.758Z,12.20
2023-01-29T14:10:20.082Z,11.48
2023-01-29T14:12:49.052Z,12.80
2023-01-29T14:15:25.031Z,12.25
2023-01-29T14:18:19.553Z,11.52
2023-01-29T14:21:23.331Z,11.33
2023-01-29T14:23:52.457Z,10.88
2023-01-29T14:26:43.650Z,11.85
2023-01-29T14:29:18.741Z,11.10
2023-01-29T14:32:06.418Z,12.93
2023-01-29T14:34:34.486Z,12.20
2023-01-29T14:37:21.872Z,11.07
2023-01-29T14:39:51.039Z,11.95
2023-01-29T14:42:40.084Z,12.13
2023-01-29T14:45:30.816Z,11.52
2023-01-29T14:48:15.715Z,14.13
2023-01-29T14:50:47.673Z,12.52
2023-01-29T14:53:36.387Z,12.60
2023-01-29T14:56:15.150Z,12.70
2023-01-29T14:58:56.285Z,11.65
2023-01-29T15:01:35.100Z,11.50
2023-01-29T15:04:17.984Z,11.05
2023-01-29T15:06:48.845Z,10.80
2023-01-29T15:09:36.340Z,10.98
2023-01-29T15:12:21.548Z,10.73
2023-01-29T15:14:52.291Z,10.70
2023-01-29T15:17:25.148Z,12.45
2023-01-29T15:19:53.756Z,11.15
2023-01-29T15:22:22.107Z,11.90
2023-01-29T15:25:04.325Z,12.57
2023-01-29T15:27:31.144Z,11.63
2023-01-29T15:30:05.997Z,10.35
2023-01-29T15:32:36.789Z,11.55
2023-01-29T15:35:43.813Z,11.27
2023-01-29T15:38:22.039Z,11.77
2023-01-29T15:40:57.391Z,10.80
2023-01-29T15:43:28.164Z,11.82
2023-01-29T15:45:59.388Z,11.18
2023-01-29T15:48:36.241Z,10.68
2023-01-29T15:51:07.221Z,11.80
2023-01-29T15:53:41.137Z,10.53
2023-01-29T15:56:12.952Z,10.65
2023-01-29T15:58:40.263Z,11.93
2023-01-29T16:01:07.092Z,10.77
2023-01-29T16:03:36.105Z,11.77
2023-01-29T16:06:02.969Z,10.20
2023-01-29T16:08:30.055Z,11.77
2023-01-29T16:10:59.490Z,11.15
2023-01-29T16:13:29.185Z,10.98
2023-01-29T16:16:01.607Z,9.77
2023-01-29T16:18:38.297Z,9.73
2023-01-29T16:21:15.626Z,9.38
2023-01-29T16:23:45.764Z,10.73
2023-01-29T16:26:17.862Z,11.50
2023-01-29T16:28:46.052Z,10.82
2023-01-29T16:31:20.508Z,9.00
2023-01-29T16:33:47.208Z,10.27
2023-01-29T16:36:20.411Z,9.73
2023-01-29T16:39:02.879Z,11.10
2023-01-29T16:41:37.481Z,12.30
2023-01-29T16:44:31.952Z,11.73
2023-01-29T16:47:10.935Z,10.00
2023-01-29T16:49:37.376Z,11.38
2023-01-29T16:52:24.309Z,10.20
2023-01-29T16:54:51.393Z,10.48
2023-01-29T16:57:27.700Z,10.30
2023-01-29T16:59:57.157Z,12.30
2023-01-29T17:02:33.348Z,11.35
2023-01-29T17:05:08.020Z,12.57
2023-01-29T17:07:36.596Z,13.25
2023-01-29T17:10:05.432Z,13.27
2023-01-29T17:12:33.543Z,10.75
2023-01-29T17:15:03.924Z,14.15
2023-01-29T17:17:36.044Z,11.68
2023-01-29T17:20:16.502Z,12.02
2023-01-29T17:22:44.650Z,10.80
2023-01-29T17:25:15.969Z,12.98
2023-01-29T17:27:45.357Z,13.95
2023-01-29T17:30:20.474Z,11.57
2023-01-29T17:32:47.414Z,11.85
2023-01-29T17:35:16.808Z,11.57
2023-01-29T17:37:44.278Z,13.40
2023-01-29T17:40:39.423Z,13.38
2023-01-29T17:43:06.908Z,11.82
2023-01-29T17:45:33.907Z,12.30
2023-01-29T17:48:00.406Z,13.37
2023-01-29T17:50:29.787Z,12.30
2023-01-29T17:52:56.244Z,12.52
2023-01-29T17:55:22.942Z,11.57
2023-01-29T17:57:49.693Z,12.48
2023-01-29T18:00:19.705Z,11.60
2023-01-29T18:02:46.699Z,12.30
2023-01-29T18:05:14.248Z,13.43
2023-01-29T18:07:43.384Z,13.45
2023-01-29T18:10:18.898Z,15.10
2023-01-29T18:12:45.779Z,13.60
2023-01-29T18:15:12.789Z,12.05
2023-01-29T18:17:40.385Z,20.67
2023-01-29T18:20:20.683Z,15.50
2023-01-29T18:22:47.496Z,14.02
2023-01-29T18:25:14.605Z,13.30
2023-01-29T18:27:41.344Z,14.27
2023-01-29T18:30:11.020Z,11.68
2023-01-29T18:32:37.613Z,12.00
2023-01-29T18:35:06.110Z,13.23
2023-01-29T18:37:33.208Z,11.93
2023-01-29T18:39:59.601Z,11.50
2023-01-29T18:42:26.075Z,13.68
2023-01-29T18:44:52.664Z,12.52
2023-01-29T18:47:19.411Z,14.27
2023-01-29T18:49:46.028Z,11.67
2023-01-29T18:52:12.537Z,11.65
2023-01-29T18:54:38.914Z,12.13
2023-01-29T18:57:14.511Z,12.93
2023-01-29T18:59:51.821Z,12.98
2023-01-29T19:02:19.405Z,11.90
2023-01-29T19:04:46.346Z,14.30
2023-01-29T19:07:14.784Z,12.93
2023-01-29T19:09:42.106Z,13.50
2023-01-29T19:12:08.628Z,13.20
2023-01-29T19:14:35.105Z,13.60
2023-01-29T19:17:01.659Z,13.60
2023-01-29T19:19:29.811Z,18.23
2023-01-29T19:21:56.388Z,13.05
2023-01-29T19:24:23.187Z,12.73
2023-01-29T19:26:50.590Z,12.60
2023-01-29T19:29:17.634Z,11.88
2023-01-29T19:31:44.186Z,12.38
2023-01-29T19:34:10.699Z,12.32
2023-01-29T19:36:37.323Z,11.40
2023-01-29T19:39:04.175Z,17.07
2023-01-29T19:41:30.783Z,13.77
2023-01-29T19:43:57.194Z,12.25
2023-01-29T19:46:23.691Z,12.43
2023-01-29T19:48:50.529Z,11.98
2023-01-29T19:51:17.092Z,13.63
2023-01-29T19:53:46.217Z,11.73
2023-01-29T19:56:15.575Z,11.55
2023-01-29T19:58:42.610Z,12.73
2023-01-29T20:01:18.264Z,12.10
2023-01-29T20:03:46.555Z,11.20
2023-01-29T20:06:15.370Z,10.80
2023-01-29T20:08:42.313Z,13.05
2023-01-29T20:11:09.810Z,13.07
2023-01-29T20:13:36.227Z,13.07
2023-01-29T20:16:03.864Z,13.20
2023-01-29T20:18:30.467Z,11.68
2023-01-29T20:20:57.086Z,14.35
2023-01-29T20:23:36.741Z,12.25
2023-01-29T20:26:05.222Z,14.55
2023-01-29T20:28:31.792Z,13.17
2023-01-29T20:30:59.020Z,14.93
2023-01-29T20:33:26.469Z,13.35
2023-01-29T20:36:04.811Z,13.60
2023-01-29T20:38:31.778Z,13.13
2023-01-29T20:41:23.564Z,14.87
2023-01-29T20:43:50.933Z,12.10
2023-01-29T20:46:18.144Z,12.07
2023-01-29T20:48:44.591Z,11.25
2023-01-29T20:51:15.332Z,12.75
2023-01-29T20:53:45.526Z,12.67
2023-01-29T20:56:13.454Z,14.07
2023-01-29T20:58:43.543Z,13.00
2023-01-29T21:01:16.491Z,13.27
2023-01-29T21:03:43.317Z,13.90
2023-01-29T21:06:11.416Z,11.80
2023-01-29T21:08:38.868Z,13.20
2023-01-29T21:11:06.838Z,13.73
2023-01-29T21:13:33.731Z,13.30
2023-01-29T21:16:00.348Z,12.65
2023-01-29T21:18:26.785Z,14.90
2023-01-29T21:20:53.977Z,12.80
2023-01-29T21:23:20.946Z,12.95
2023-01-29T21:25:48.060Z,13.98
2023-01-29T21:28:15.893Z,14.18
2023-01-29T21:30:42.503Z,14.20
2023-01-29T21:33:09.154Z,13.20
2023-01-29T21:35:37.776Z,13.85
2023-01-29T21:38:07.636Z,15.43
2023-01-29T21:40:34.176Z,11.88
2023-01-29T21:43:13.803Z,13.30
2023-01-29T21:45:40.870Z,12.93
2023-01-29T21:48:09.011Z,14.45
2023-01-29T21:50:36.239Z,13.23
2023-01-29T21:53:03.117Z,12.88
2023-01-29T21:55:30.764Z,11.73
2023-01-29T21:57:57.512Z,12.80
2023-01-29T22:00:24.104Z,12.77
2023-01-29T22:02:56.276Z,12.60
2023-01-29T22:05:24.043Z,13.23
2023-01-29T22:07:51.205Z,14.37
2023-01-29T22:10:21.793Z,13.35
2023-01-29T22:12:48.454Z,13.57
2023-01-29T22:15:17.971Z,13.55
2023-01-29T22:17:44.533Z,12.27
2023-01-29T22:20:16.550Z,13.07
2023-01-29T22:22:43.428Z,14.02
2023-01-29T22:25:15.673Z,16.20
2023-01-29T22:27:42.106Z,13.10
2023-01-29T22:30:09.306Z,13.18
2023-01-29T22:32:35.861Z,13.70
2023-01-29T22:35:02.295Z,14.75
2023-01-29T22:37:30.206Z,13.80
2023-01-29T22:39:56.613Z,13.35
2023-01-29T22:42:23.110Z,14.45
2023-01-29T22:44:50.191Z,13.37
2023-01-29T22:47:16.695Z,12.82
2023-01-29T22:49:45.538Z,13.18
2023-01-29T22:52:12.348Z,12.95
2023-01-29T22:54:40.957Z,13.57
2023-01-29T22:57:10.457Z,13.30
2023-01-29T22:59:37.411Z,13.55
2023-01-29T23:02:04.556Z,14.95
2023-01-29T23:04:31.167Z,11.95
2023-01-29T23:06:57.689Z,12.98
2023-01-29T23:09:24.357Z,14.80
2023-01-29T23:11:50.993Z,12.38
2023-01-29T23:14:17.602Z,14.00
2023-01-29T23:16:44.139Z,12.40
2023-01-29T23:19:12.092Z,13.10
2023-01-29T23:21:39.522Z,12.70
2023-01-29T23:24:07.315Z,13.65
2023-01-29T23:26:52.867Z,12.52
2023-01-29T23:29:20.648Z,12.02
2023-01-29T23:31:47.324Z,11.57
2023-01-29T23:34:14.269Z,11.43
2023-01-29T23:36:41.116Z,12.75
2023-01-29T23:39:07.896Z,11.85
2023-01-29T23:41:34.459Z,14.77
2023-01-29T23:44:00.989Z,11.45
2023-01-29T23:46:27.556Z,10.83
2023-01-29T23:48:54.161Z,11.40
2023-01-29T23:51:20.604Z,12.20
2023-01-29T23:53:47.075Z,11.93
2023-01-29T23:56:13.706Z,12.25
2023-01-29T23:58:40.332Z,11.57
